Time;durP1;ratioP1;P1;durP2;ratioP2;P2;SDS_P1;SDS_P2;PMS_P1;PMS_P2;Temp;Humidity;BMP_temperature;BMP_pressure;BME280_temperature;BME280_humidity;BME280_pressure;Samples;Min_cycle;Max_cycle;Signal;HPM_P1;HPM_P2
2023/10/29 00:01:15;;;;;;;1.50;0.80;;;15.10;91.50;;;;;;4996530;28;20116;-79
2023/10/29 00:03:41;;;;;;;1.33;0.68;;;15.10;91.50;;;;;;4996687;28;20025;-79
2023/10/29 00:06:06;;;;;;;2.60;0.80;;;15.10;91.40;;;;;;4996599;28;20489;-78
2023/10/29 00:08:32;;;;;;;1.40;0.70;;;15.10;91.50;;;;;;5014328;28;20041;-79
2023/10/29 00:10:57;;;;;;;1.73;0.88;;;15.00;91.40;;;;;;4996919;28;20021;-79
2023/10/29 00:13:25;;;;;;;2.03;0.70;;;15.00;91.50;;;;;;4996898;28;20611;-79
2023/10/29 00:15:50;;;;;;;1.73;0.80;;;15.00;91.50;;;;;;4996840;28;20026;-79
2023/10/29 00:18:17;;;;;;;1.70;0.80;;;15.00;91.50;;;;;;5014395;28;20060;-79
2023/10/29 00:20:43;;;;;;;1.67;0.70;;;15.00;91.60;;;;;;4996692;28;20579;-79
2023/10/29 00:23:08;;;;;;;1.27;0.73;;;15.00;91.60;;;;;;4996998;28;20072;-79
2023/10/29 00:25:34;;;;;;;1.30;0.70;;;15.00;91.60;;;;;;5014175;28;20030;-79
2023/10/29 00:27:59;;;;;;;1.40;0.70;;;15.00;91.60;;;;;;4996842;28;20061;-79
2023/10/29 00:30:25;;;;;;;1.50;0.70;;;14.90;91.60;;;;;;4996727;28;20030;-80
2023/10/29 00:32:50;;;;;;;0.85;0.60;;;15.00;91.60;;;;;;5014283;28;20030;-79
2023/10/29 00:35:16;;;;;;;1.30;0.70;;;15.00;91.70;;;;;;4996583;28;20030;-79
2023/10/29 00:37:42;;;;;;;1.17;0.60;;;15.00;91.70;;;;;;5014104;28;20026;-78
2023/10/29 00:40:09;;;;;;;1.52;0.80;;;14.90;91.70;;;;;;4996487;28;20021;-79
2023/10/29 00:42:34;;;;;;;1.40;0.73;;;15.00;91.70;;;;;;4996558;28;20048;-79
2023/10/29 00:45:00;;;;;;;1.15;0.68;;;14.90;91.70;;;;;;5013986;28;20022;-79
2023/10/29 00:47:25;;;;;;;1.60;0.60;;;14.90;91.70;;;;;;4996464;28;20029;-79
2023/10/29 00:49:52;;;;;;;0.80;0.52;;;14.90;91.70;;;;;;4996100;28;20033;-79
2023/10/29 00:52:18;;;;;;;0.80;0.70;;;14.90;91.70;;;;;;4996346;28;20049;-79
2023/10/29 00:54:44;;;;;;;0.85;0.57;;;14.90;91.70;;;;;;4996566;28;20472;-79
2023/10/29 00:57:11;;;;;;;1.58;0.60;;;14.90;91.70;;;;;;4996143;28;20080;-79
2023/10/29 00:59:37;;;;;;;1.23;0.70;;;14.90;91.70;;;;;;4995922;28;20447;-80
2023/10/29 01:02:02;;;;;;;2.05;0.80;;;15.00;91.70;;;;;;4996016;28;20018;-79
2023/10/29 01:04:28;;;;;;;1.30;0.70;;;14.90;91.80;;;;;;4995964;28;20527;-79
2023/10/29 01:06:54;;;;;;;1.50;0.63;;;14.90;91.70;;;;;;4995882;28;20055;-79
2023/10/29 01:09:20;;;;;;;0.93;0.60;;;15.00;91.70;;;;;;5013256;28;20664;-79
2023/10/29 01:11:46;;;;;;;2.25;0.60;;;15.00;91.70;;;;;;4995864;28;20381;-79
2023/10/29 01:14:12;;;;;;;2.47;0.82;;;15.00;91.60;;;;;;4995878;28;20022;-79
2023/10/29 01:16:39;;;;;;;1.40;0.73;;;15.00;91.60;;;;;;4976869;28;20033;-79
2023/10/29 01:19:04;;;;;;;1.08;0.60;;;15.00;91.50;;;;;;4976090;28;20026;-79
2023/10/29 01:21:30;;;;;;;1.15;0.60;;;15.10;91.50;;;;;;4975678;28;20022;-79
2023/10/29 01:23:56;;;;;;;1.58;0.90;;;15.00;91.50;;;;;;4993571;28;20070;-79
2023/10/29 01:26:22;;;;;;;0.88;0.60;;;15.10;91.50;;;;;;4975990;28;20045;-79
2023/10/29 01:28:47;;;;;;;1.27;0.68;;;15.10;91.50;;;;;;4976134;28;20026;-79
2023/10/29 01:31:13;;;;;;;1.13;0.65;;;15.10;91.50;;;;;;4993702;28;20040;-79
2023/10/29 01:33:39;;;;;;;0.80;0.60;;;15.00;91.50;;;;;;4993592;28;20031;-79
2023/10/29 01:36:06;;;;;;;1.20;0.60;;;15.00;91.50;;;;;;4975983;28;20033;-79
2023/10/29 01:38:32;;;;;;;0.70;0.70;;;15.00;91.50;;;;;;4976250;28;20022;-79
2023/10/29 01:40:58;;;;;;;0.75;0.60;;;15.00;91.60;;;;;;4975739;28;20503;-79
2023/10/29 01:43:24;;;;;;;1.65;0.70;;;15.00;91.60;;;;;;4976051;28;20031;-79
2023/10/29 01:45:49;;;;;;;1.25;0.70;;;15.00;91.60;;;;;;4993248;28;20026;-79
2023/10/29 01:48:16;;;;;;;1.25;0.60;;;15.00;91.70;;;;;;4975943;28;20401;-79
2023/10/29 01:50:41;;;;;;;1.13;0.60;;;14.90;91.70;;;;;;4975776;28;20030;-79
2023/10/29 01:53:07;;;;;;;2.15;0.60;;;15.00;91.70;;;;;;4975797;28;20029;-79
2023/10/29 01:55:36;;;;;;;1.25;0.73;;;15.00;91.70;;;;;;4975814;28;20038;-79
2023/10/29 01:58:02;;;;;;;0.90;0.52;;;15.00;91.70;;;;;;4975913;28;20022;-79
2023/10/29 02:00:28;;;;;;;0.82;0.57;;;14.90;91.70;;;;;;4975634;28;20519;-79
2023/10/29 02:02:53;;;;;;;0.73;0.45;;;14.90;91.70;;;;;;4975677;28;20045;-79
2023/10/29 02:05:19;;;;;;;1.60;0.60;;;14.90;91.70;;;;;;4993114;28;20018;-79
2023/10/29 02:07:45;;;;;;;1.60;0.77;;;14.90;91.70;;;;;;4975650;28;20465;-79
2023/10/29 02:10:10;;;;;;;1.65;0.70;;;14.90;91.80;;;;;;4975494;28;20027;-79
2023/10/29 02:12:36;;;;;;;2.17;0.70;;;14.90;91.80;;;;;;4975627;28;20019;-79
2023/10/29 02:15:04;;;;;;;0.88;0.65;;;14.90;91.80;;;;;;4975792;28;20109;-80
2023/10/29 02:17:30;;;;;;;1.33;0.70;;;14.90;91.80;;;;;;4976096;28;20026;-78
2023/10/29 02:19:56;;;;;;;1.17;0.60;;;14.90;91.80;;;;;;4975431;28;20113;-80
2023/10/29 02:22:30;;;;;;;1.45;0.63;;;14.90;91.80;;;;;;4992925;28;20473;-79
2023/10/29 02:24:56;;;;;;;1.60;0.70;;;14.90;91.80;;;;;;4975474;28;20026;-78
2023/10/29 02:27:21;;;;;;;1.13;0.60;;;14.90;91.80;;;;;;4992879;28;20081;-79
2023/10/29 02:29:47;;;;;;;0.82;0.50;;;14.90;91.80;;;;;;4975370;28;20026;-79
2023/10/29 02:32:13;;;;;;;1.00;0.60;;;14.90;91.80;;;;;;4975970;28;20605;-79
2023/10/29 02:34:38;;;;;;;1.70;0.70;;;15.00;91.80;;;;;;4979289;28;20027;-79
2023/10/29 02:37:04;;;;;;;0.98;0.60;;;15.00;91.70;;;;;;4979126;28;20443;-79
2023/10/29 02:39:29;;;;;;;1.08;0.55;;;15.00;91.70;;;;;;4979166;28;20033;-79
2023/10/29 02:41:55;;;;;;;1.23;0.60;;;15.00;91.60;;;;;;4996711;28;20404;-80
2023/10/29 02:44:20;;;;;;;0.93;0.70;;;15.10;91.60;;;;;;4979205;28;20113;-79
2023/10/29 02:46:46;;;;;;;0.77;0.60;;;15.10;91.60;;;;;;4979149;28;20037;-79
2023/10/29 02:49:11;;;;;;;0.95;0.60;;;15.10;91.60;;;;;;4978928;28;20027;-79
2023/10/29 02:51:37;;;;;;;1.75;0.70;;;15.00;91.60;;;;;;4979269;28;20038;-81
2023/10/29 02:54:03;;;;;;;1.45;0.70;;;15.00;91.60;;;;;;4996348;28;20033;-79
2023/10/29 02:56:30;;;;;;;0.60;0.60;;;15.00;91.60;;;;;;4978943;28;20121;-79
2023/10/29 02:58:55;;;;;;;0.68;0.50;;;15.00;91.60;;;;;;4978952;28;20030;-79
2023/10/29 03:01:21;;;;;;;1.13;0.60;;;15.00;91.60;;;;;;4978855;28;20018;-79
2023/10/29 03:03:46;;;;;;;1.10;0.60;;;15.00;91.70;;;;;;4978994;28;20018;-79
2023/10/29 03:06:13;;;;;;;2.33;0.70;;;15.00;91.70;;;;;;4978772;28;20547;-79
2023/10/29 03:08:38;;;;;;;1.15;0.60;;;14.90;91.70;;;;;;4978888;28;20077;-79
2023/10/29 03:11:04;;;;;;;0.90;0.50;;;15.00;91.70;;;;;;4978573;28;20037;-79
2023/10/29 03:13:29;;;;;;;1.35;0.63;;;14.90;91.80;;;;;;4978647;28;20026;-80
2023/10/29 03:15:56;;;;;;;0.82;0.50;;;14.90;91.70;;;;;;4978365;28;20026;-79
2023/10/29 03:18:22;;;;;;;1.20;0.50;;;14.90;91.80;;;;;;4978501;28;20381;-79
2023/10/29 03:20:48;;;;;;;1.10;0.60;;;14.90;91.80;;;;;;4978393;28;20612;-79
2023/10/29 03:23:13;;;;;;;1.73;0.60;;;14.90;91.80;;;;;;4995983;28;20114;-79
2023/10/29 03:25:39;;;;;;;1.08;0.50;;;14.90;91.80;;;;;;4978478;28;20018;-79
2023/10/29 03:28:05;;;;;;;1.25;0.60;;;14.90;91.80;;;;;;4978371;28;20537;-79
2023/10/29 03:30:31;;;;;;;1.38;0.63;;;14.90;91.80;;;;;;4978336;28;20132;-79
2023/10/29 03:32:56;;;;;;;0.85;0.47;;;14.90;91.80;;;;;;4978242;28;20104;-79
2023/10/29 03:35:22;;;;;;;1.05;0.50;;;14.90;91.80;;;;;;4978235;28;20035;-80
2023/10/29 03:37:47;;;;;;;1.05;0.50;;;14.90;91.80;;;;;;4978254;28;20022;-79
2023/10/29 03:40:13;;;;;;;1.00;0.50;;;14.90;91.90;;;;;;4978063;28;20027;-79
2023/10/29 03:42:38;;;;;;;1.13;0.68;;;14.90;91.80;;;;;;4978377;28;20463;-79
2023/10/29 03:45:04;;;;;;;1.00;0.60;;;14.90;91.90;;;;;;4977629;28;20125;-79
2023/10/29 03:47:30;;;;;;;0.88;0.60;;;14.90;91.90;;;;;;4977975;28;20026;-79
2023/10/29 03:49:55;;;;;;;0.82;0.63;;;14.90;91.90;;;;;;4977704;28;20030;-79
2023/10/29 03:52:22;;;;;;;1.30;0.60;;;14.90;91.90;;;;;;4978033;28;20026;-79
2023/10/29 03:54:47;;;;;;;1.48;0.50;;;14.90;91.80;;;;;;4978026;28;20030;-79
2023/10/29 03:57:13;;;;;;;1.52;0.52;;;15.00;91.80;;;;;;4995900;28;20052;-79
2023/10/29 03:59:39;;;;;;;1.75;0.60;;;15.00;91.80;;;;;;4992144;28;20084;-79
2023/10/29 04:02:04;;;;;;;2.90;0.70;;;15.00;91.70;;;;;;4997082;28;20025;-79
2023/10/29 04:04:31;;;;;;;1.15;0.60;;;15.00;91.70;;;;;;4997292;28;20022;-79
2023/10/29 04:06:57;;;;;;;1.35;0.60;;;15.00;91.60;;;;;;4997134;28;20034;-79
2023/10/29 04:09:22;;;;;;;1.50;0.70;;;15.00;91.60;;;;;;4996881;28;20430;-79
2023/10/29 04:11:48;;;;;;;0.85;0.60;;;15.00;91.60;;;;;;5014579;28;20022;-80
2023/10/29 04:14:13;;;;;;;1.50;0.68;;;15.00;91.60;;;;;;4997166;28;20029;-79
2023/10/29 04:16:39;;;;;;;0.98;0.63;;;15.00;91.60;;;;;;4996908;28;20072;-79
2023/10/29 04:19:05;;;;;;;0.55;0.52;;;15.00;91.70;;;;;;4996772;28;20198;-79
2023/10/29 04:21:30;;;;;;;1.17;0.60;;;15.00;91.70;;;;;;4996773;28;20121;-79
2023/10/29 04:23:56;;;;;;;1.15;0.50;;;15.00;91.70;;;;;;5014346;28;20018;-80
2023/10/29 04:26:21;;;;;;;0.80;0.60;;;15.00;91.80;;;;;;5014119;28;20560;-79
2023/10/29 04:28:46;;;;;;;0.82;0.40;;;15.00;91.80;;;;;;4996629;28;20033;-79
2023/10/29 04:31:12;;;;;;;1.92;0.73;;;14.90;91.80;;;;;;4996530;28;20117;-79
2023/10/29 04:33:38;;;;;;;0.88;0.50;;;14.90;91.80;;;;;;4996832;28;20025;-80
2023/10/29 04:36:04;;;;;;;1.42;0.70;;;14.90;91.80;;;;;;4996386;28;20029;-79
2023/10/29 04:38:31;;;;;;;0.40;0.40;;;14.90;91.80;;;;;;4996622;28;20076;-79
2023/10/29 04:40:57;;;;;;;0.93;0.50;;;14.90;91.90;;;;;;5013941;28;20028;-79
2023/10/29 04:43:22;;;;;;;0.98;0.50;;;14.90;91.80;;;;;;4988441;28;20022;-79
2023/10/29 04:45:48;;;;;;;1.27;0.60;;;14.90;91.90;;;;;;5013831;28;20493;-79
2023/10/29 04:48:14;;;;;;;0.85;0.57;;;14.90;91.90;;;;;;5013882;28;20544;-79
2023/10/29 04:50:39;;;;;;;1.35;0.65;;;14.90;91.90;;;;;;4996285;28;20164;-79
2023/10/29 04:53:05;;;;;;;1.85;0.60;;;14.90;91.90;;;;;;5013838;28;20496;-80
2023/10/29 04:55:30;;;;;;;0.63;0.50;;;14.90;91.90;;;;;;4995417;28;20033;-79
2023/10/29 04:57:56;;;;;;;2.25;0.80;;;14.90;91.90;;;;;;4996089;28;20026;-79
2023/10/29 05:00:22;;;;;;;0.98;0.60;;;14.90;91.90;;;;;;4996041;28;20026;-79
2023/10/29 05:02:48;;;;;;;0.88;0.50;;;14.90;91.90;;;;;;4997152;28;20022;-80
2023/10/29 05:05:13;;;;;;;1.35;0.55;;;14.90;91.90;;;;;;5013651;28;20022;-80
2023/10/29 05:07:40;;;;;;;1.80;0.60;;;14.90;91.90;;;;;;4996272;28;20541;-79
2023/10/29 05:10:06;;;;;;;0.80;0.60;;;14.90;91.90;;;;;;4995772;28;20026;-80
2023/10/29 05:12:32;;;;;;;0.70;0.50;;;14.90;91.90;;;;;;4995987;28;20125;-79
2023/10/29 05:14:58;;;;;;;1.00;0.60;;;14.90;91.90;;;;;;4995903;28;20057;-79
2023/10/29 05:17:23;;;;;;;1.02;0.60;;;14.90;91.80;;;;;;4995657;28;20076;-79
2023/10/29 05:19:49;;;;;;;0.82;0.50;;;15.00;91.80;;;;;;4995538;28;20026;-79
2023/10/29 05:22:14;;;;;;;1.10;0.60;;;15.00;91.70;;;;;;4995806;28;20045;-80
2023/10/29 05:24:40;;;;;;;1.92;0.60;;;15.00;91.70;;;;;;4995749;28;20018;-79
2023/10/29 05:27:05;;;;;;;0.98;0.47;;;15.00;91.60;;;;;;4995615;28;20442;-79
2023/10/29 05:29:32;;;;;;;0.70;0.50;;;15.00;91.60;;;;;;4995513;28;20030;-79
2023/10/29 05:31:58;;;;;;;1.70;0.70;;;15.00;91.60;;;;;;4995643;28;20076;-79
2023/10/29 05:34:23;;;;;;;1.17;0.60;;;15.00;91.60;;;;;;4995557;28;20029;-79
2023/10/29 05:36:49;;;;;;;0.90;0.47;;;15.00;91.60;;;;;;4995375;28;20029;-79
2023/10/29 05:39:14;;;;;;;0.50;0.50;;;15.00;91.70;;;;;;4995334;28;20033;-78
2023/10/29 05:41:40;;;;;;;1.30;0.50;;;15.00;91.70;;;;;;5013222;28;20025;-79
2023/10/29 05:44:06;;;;;;;3.17;0.80;;;15.00;91.70;;;;;;4995352;28;20443;-79
2023/10/29 05:46:32;;;;;;;0.55;0.47;;;14.90;91.70;;;;;;5012996;28;20026;-79
2023/10/29 05:48:58;;;;;;;0.60;0.40;;;14.90;91.80;;;;;;5012896;28;20022;-80
2023/10/29 05:51:23;;;;;;;0.88;0.45;;;15.00;91.80;;;;;;4995230;28;20045;-80
2023/10/29 05:53:49;;;;;;;1.73;0.57;;;15.00;91.80;;;;;;4995372;28;20026;-79
2023/10/29 05:56:15;;;;;;;0.88;0.63;;;14.90;91.80;;;;;;4995169;28;20113;-79
2023/10/29 05:58:40;;;;;;;0.57;0.50;;;14.90;91.80;;;;;;4992389;28;20072;-79
2023/10/29 06:01:07;;;;;;;1.00;0.60;;;14.90;91.80;;;;;;4979797;28;20026;-79
2023/10/29 06:03:33;;;;;;;1.13;0.50;;;14.90;91.80;;;;;;4989591;28;20101;-79
2023/10/29 06:05:59;;;;;;;1.20;0.55;;;14.90;91.90;;;;;;5012519;28;20025;-80
2023/10/29 06:08:25;;;;;;;0.82;0.50;;;14.90;91.90;;;;;;4993905;28;20587;-78
2023/10/29 06:10:50;;;;;;;1.52;0.60;;;14.90;91.90;;;;;;4994697;28;20085;-80
2023/10/29 06:13:16;;;;;;;1.15;0.52;;;14.90;91.90;;;;;;4995260;28;20022;-79
2023/10/29 06:15:42;;;;;;;1.27;0.50;;;14.90;91.90;;;;;;5012440;28;20060;-79
2023/10/29 06:18:07;;;;;;;0.90;0.50;;;14.90;91.90;;;;;;4994995;28;20018;-80
2023/10/29 06:20:33;;;;;;;0.98;0.50;;;14.90;91.90;;;;;;4995006;28;20018;-79
2023/10/29 06:22:59;;;;;;;1.50;0.60;;;14.90;91.90;;;;;;4994958;28;20030;-79
2023/10/29 06:25:25;;;;;;;0.95;0.50;;;14.90;91.90;;;;;;4994886;28;20021;-79
2023/10/29 06:27:50;;;;;;;0.93;0.52;;;14.90;91.90;;;;;;4994864;28;20108;-79
2023/10/29 06:30:19;;;;;;;1.00;0.50;;;14.90;91.90;;;;;;4994836;28;20116;-79
2023/10/29 06:32:45;;;;;;;0.85;0.50;;;14.90;91.90;;;;;;5012494;28;20049;-79
2023/10/29 06:35:12;;;;;;;0.90;0.50;;;14.90;91.90;;;;;;4994907;28;20022;-79
2023/10/29 06:37:37;;;;;;;1.20;0.50;;;14.90;91.90;;;;;;5012379;28;20116;-80
2023/10/29 06:40:03;;;;;;;0.77;0.60;;;14.90;91.80;;;;;;4994720;28;20206;-79
2023/10/29 06:42:28;;;;;;;1.30;0.50;;;15.00;91.80;;;;;;4994745;28;20084;-79
2023/10/29 06:44:54;;;;;;;1.40;0.60;;;15.00;91.70;;;;;;5012497;28;20026;-79
2023/10/29 06:47:20;;;;;;;1.20;0.60;;;15.00;91.70;;;;;;4994940;28;20029;-79
2023/10/29 06:49:45;;;;;;;0.60;0.50;;;15.00;91.60;;;;;;4994778;28;20029;-79
2023/10/29 06:52:11;;;;;;;1.75;0.60;;;15.00;91.60;;;;;;5012460;28;20109;-79
2023/10/29 06:54:36;;;;;;;0.57;0.50;;;15.00;91.60;;;;;;4994747;28;20033;-80
2023/10/29 06:57:04;;;;;;;0.85;0.50;;;15.00;91.60;;;;;;4994548;28;20030;-79
2023/10/29 06:59:30;;;;;;;0.55;0.40;;;15.00;91.60;;;;;;4994539;28;20046;-79
2023/10/29 07:01:58;;;;;;;1.00;0.43;;;15.00;91.70;;;;;;4994712;28;20060;-79
2023/10/29 07:04:24;;;;;;;1.17;0.70;;;15.00;91.70;;;;;;5009654;28;20079;-79
2023/10/29 07:06:49;;;;;;;1.02;0.65;;;15.00;91.70;;;;;;5003472;23;20039;-79
2023/10/29 07:09:15;;;;;;;1.73;0.60;;;15.00;91.70;;;;;;4935070;29;20032;-79
2023/10/29 07:11:44;;;;;;;0.73;0.50;;;15.00;91.80;;;;;;4936813;28;20027;-81
2023/10/29 07:14:11;;;;;;;1.33;0.50;;;14.90;91.80;;;;;;4951345;29;20027;-79
2023/10/29 07:17:39;;;;;;;1.27;0.55;;;14.90;91.80;;;;;;5035170;23;20137;-79
2023/10/29 07:47:55;;;;;;;1.58;0.60;;;14.90;91.90;;;;;;5446970;23;20070;-80
2023/10/29 07:50:21;;;;;;;1.25;0.50;;;14.90;91.90;;;;;;4977333;28;20022;-81
2023/10/29 07:52:47;;;;;;;1.40;0.50;;;14.90;91.90;;;;;;4983561;28;20047;-81
2023/10/29 07:55:13;;;;;;;0.75;0.50;;;14.90;91.90;;;;;;4994771;28;20523;-80
2023/10/29 07:58:05;;;;;;;0.93;0.57;;;14.90;91.80;;;;;;5196077;23;20148;-81
2023/10/29 08:01:43;;;;;;;1.20;0.40;;;15.00;91.80;;;;;;5010650;28;20491;-83
2023/10/29 08:04:14;;;;;;;0.93;0.80;;;15.00;91.70;;;;;;4969106;28;20034;-80
2023/10/29 08:09:33;;;;;;;2.10;0.75;;;15.00;91.60;;;;;;4951166;28;20273;-80
2023/10/29 08:12:01;;;;;;;0.60;0.43;;;14.40;91.30;;;;;;4973190;28;20061;-79
2023/10/29 08:14:29;;;;;;;0.70;0.50;;;15.70;91.70;;;;;;4974132;28;20037;-78
2023/10/29 08:20:07;;;;;;;1.88;0.55;;;15.10;91.60;;;;;;4982589;28;20034;-79
2023/10/29 08:22:33;;;;;;;1.60;0.45;;;15.00;91.60;;;;;;4976292;28;20030;-78
2023/10/29 08:25:01;;;;;;;0.77;0.50;;;15.00;91.60;;;;;;4990814;28;20023;-78
2023/10/29 08:27:34;;;;;;;0.60;0.45;;;14.90;91.60;;;;;;4992784;28;20057;-78
2023/10/29 08:30:05;;;;;;;0.75;0.43;;;15.20;91.70;;;;;;4992186;28;20036;-79
2023/10/29 08:32:35;;;;;;;0.60;0.43;;;16.00;92.00;;;;;;4992940;28;20056;-79
2023/10/29 08:35:07;;;;;;;1.23;0.55;;;15.00;91.70;;;;;;4992942;28;20029;-79
2023/10/29 08:37:35;;;;;;;0.82;0.50;;;15.00;91.70;;;;;;5010044;28;20075;-79
2023/10/29 08:40:08;;;;;;;0.82;0.45;;;15.00;91.80;;;;;;4980035;28;20034;-80
2023/10/29 08:42:36;;;;;;;1.38;0.50;;;15.00;91.80;;;;;;4993378;28;20079;-79
2023/10/29 08:45:17;;;;;;;0.65;0.40;;;15.00;91.80;;;;;;5011235;28;20018;-80
2023/10/29 08:47:43;;;;;;;0.90;0.50;;;15.40;91.90;;;;;;4991496;28;20387;-79
2023/10/29 08:50:09;;;;;;;0.80;0.50;;;14.90;92.00;;;;;;4964176;28;20056;-78
2023/10/29 08:52:37;;;;;;;1.08;0.60;;;15.00;91.80;;;;;;4987996;28;20160;-79
2023/10/29 08:55:06;;;;;;;0.75;0.28;;;14.60;91.70;;;;;;4968176;28;20026;-79
2023/10/29 08:57:35;;;;;;;1.02;0.40;;;14.90;91.70;;;;;;4986893;28;20049;-79
2023/10/29 09:00:01;;;;;;;1.50;0.40;;;15.10;91.80;;;;;;4963742;28;20438;-78
2023/10/29 09:02:26;;;;;;;0.82;0.60;;;15.00;91.80;;;;;;4968394;28;20109;-79
2023/10/29 09:04:57;;;;;;;1.02;0.50;;;15.10;91.80;;;;;;4987259;28;20308;-78
2023/10/29 09:07:25;;;;;;;0.50;0.43;;;15.90;92.00;;;;;;4972040;28;20392;-78
2023/10/29 09:09:52;;;;;;;1.13;0.60;;;15.00;91.80;;;;;;4969227;28;20490;-78
2023/10/29 09:12:21;;;;;;;1.17;0.60;;;15.10;91.80;;;;;;4989526;28;20515;-79
2023/10/29 09:14:58;;;;;;;1.73;0.65;;;15.00;91.80;;;;;;4973113;28;20041;-78
2023/10/29 09:17:50;;;;;;;1.83;0.60;;;15.10;91.80;;;;;;4971018;28;20391;-80
2023/10/29 09:20:16;;;;;;;1.67;0.65;;;15.10;91.80;;;;;;4971282;28;20090;-79
2023/10/29 09:22:44;;;;;;;1.85;0.35;;;15.20;91.80;;;;;;4991340;28;20110;-79
2023/10/29 09:25:13;;;;;;;1.00;0.50;;;15.10;91.60;;;;;;4973788;28;20061;-79
2023/10/29 09:27:48;;;;;;;;;;;;;;;;;;;;;
2023/10/29 09:30:15;;;;;;;1.27;0.65;;;16.30;91.80;;;;;;4990857;28;20037;-81
2023/10/29 09:32:40;;;;;;;1.52;0.50;;;15.10;91.50;;;;;;4990604;28;20026;-81
2023/10/29 09:35:07;;;;;;;0.80;0.52;;;15.20;91.70;;;;;;4990335;28;20026;-81
2023/10/29 09:37:38;;;;;;;1.35;0.50;;;15.10;91.50;;;;;;4968593;28;20030;-79
2023/10/29 09:40:32;;;;;;;1.27;0.60;;;15.30;91.50;;;;;;4988395;28;20030;-78
2023/10/29 09:43:12;;;;;;;0.88;0.45;;;15.00;91.40;;;;;;4970927;28;20273;-79
2023/10/29 09:45:58;;;;;;;1.25;0.40;;;15.10;91.50;;;;;;4972439;28;20030;-79
2023/10/29 09:48:29;;;;;;;1.63;0.50;;;15.10;91.80;;;;;;4972617;28;20085;-79
2023/10/29 09:51:09;;;;;;;0.90;0.40;;;14.90;91.50;;;;;;4971827;28;20026;-78
2023/10/29 09:53:38;;;;;;;1.30;0.73;;;15.20;91.60;;;;;;4972416;28;20052;-78
2023/10/29 09:56:10;;;;;;;1.27;0.43;;;15.00;91.60;;;;;;4970977;28;20072;-78
2023/10/29 09:58:36;;;;;;;1.40;0.60;;;14.90;91.60;;;;;;4971660;28;20033;-77
2023/10/29 10:01:05;;;;;;;0.93;0.40;;;15.10;91.70;;;;;;4989620;28;20097;-80
2023/10/29 10:03:31;;;;;;;0.90;0.40;;;15.00;91.70;;;;;;4972586;28;20037;-78
2023/10/29 10:06:00;;;;;;;1.02;0.40;;;15.10;91.70;;;;;;4970769;28;20492;-79
2023/10/29 10:08:33;;;;;;;1.48;0.47;;;15.20;91.80;;;;;;4969157;28;20034;-78
2023/10/29 10:10:59;;;;;;;1.33;0.50;;;15.00;91.70;;;;;;4986892;28;20313;-79
2023/10/29 10:13:39;;;;;;;0.52;0.40;;;15.10;91.80;;;;;;4969702;28;20049;-78
2023/10/29 10:16:06;;;;;;;2.95;0.70;;;14.90;91.70;;;;;;4983464;28;20037;-79
2023/10/29 10:18:57;;;;;;;1.23;0.50;;;15.10;91.70;;;;;;4969495;28;20030;-79
2023/10/29 10:21:24;;;;;;;0.73;0.40;;;15.10;91.80;;;;;;4969184;28;20034;-79
2023/10/29 10:23:55;;;;;;;0.70;0.45;;;15.10;91.70;;;;;;4969156;28;20294;-79
2023/10/29 10:26:32;;;;;;;1.70;0.60;;;15.10;91.70;;;;;;4986243;28;20085;-78
2023/10/29 10:28:59;;;;;;;1.52;0.50;;;15.10;91.80;;;;;;4986400;28;20041;-79
2023/10/29 10:31:27;;;;;;;0.30;0.30;;;15.10;91.80;;;;;;4974522;28;20030;-79
2023/10/29 10:34:09;;;;;;;0.90;0.40;;;15.10;91.80;;;;;;4974741;28;20048;-79
2023/10/29 10:36:34;;;;;;;0.52;0.30;;;15.00;91.70;;;;;;4974986;28;20037;-80
2023/10/29 10:39:00;;;;;;;0.98;0.50;;;15.00;91.70;;;;;;4974864;28;20020;-79
2023/10/29 10:41:45;;;;;;;1.98;0.60;;;15.10;91.70;;;;;;4974988;28;20396;-80
2023/10/29 10:44:16;;;;;;;0.70;0.40;;;15.10;91.60;;;;;;4975170;28;20479;-79
2023/10/29 10:46:50;;;;;;;1.00;0.50;;;15.10;91.40;;;;;;4999167;28;20038;-79
2023/10/29 10:49:17;;;;;;;1.38;0.50;;;15.20;91.50;;;;;;4978273;28;20033;-80
2023/10/29 10:51:42;;;;;;;1.45;0.50;;;15.20;91.40;;;;;;4980697;28;20382;-80
2023/10/29 10:54:08;;;;;;;1.95;0.60;;;15.20;91.40;;;;;;4975598;28;20088;-79
2023/10/29 10:56:35;;;;;;;1.65;0.50;;;15.20;91.40;;;;;;4995598;28;20034;-79
2023/10/29 10:59:06;;;;;;;0.95;0.40;;;15.20;91.40;;;;;;4996277;28;20031;-79
2023/10/29 11:01:40;;;;;;;1.50;0.43;;;15.20;91.40;;;;;;4978889;28;20041;-78
2023/10/29 11:04:08;;;;;;;1.05;0.50;;;15.20;91.40;;;;;;4979146;28;20027;-78
2023/10/29 11:06:36;;;;;;;2.00;0.50;;;15.20;91.40;;;;;;4978990;28;20068;-80
2023/10/29 11:09:05;;;;;;;1.15;0.60;;;15.20;91.40;;;;;;4996316;28;20046;-79
2023/10/29 11:11:35;;;;;;;2.17;0.40;;;15.20;91.40;;;;;;4978944;28;20129;-79
2023/10/29 11:14:08;;;;;;;0.95;0.40;;;15.20;91.40;;;;;;4978689;28;20068;-78
2023/10/29 11:16:44;;;;;;;0.63;0.38;;;15.20;91.40;;;;;;4996126;28;20034;-79
2023/10/29 11:19:44;;;;;;;1.10;0.38;;;15.30;91.40;;;;;;4996123;28;20033;-80
2023/10/29 11:22:22;;;;;;;0.40;0.40;;;15.30;91.40;;;;;;4978414;28;20101;-80
2023/10/29 11:25:08;;;;;;;0.60;0.40;;;15.30;91.40;;;;;;4996061;28;20023;-79
2023/10/29 11:27:44;;;;;;;1.20;0.30;;;15.30;91.30;;;;;;4978301;28;20161;-79
2023/10/29 11:30:14;;;;;;;0.95;0.40;;;15.30;91.30;;;;;;4978321;28;20604;-80
2023/10/29 11:32:44;;;;;;;1.30;0.47;;;15.30;91.30;;;;;;4995817;28;20081;-79
2023/10/29 11:35:20;;;;;;;1.45;0.50;;;15.30;91.30;;;;;;4996036;28;20033;-79
2023/10/29 11:37:51;;;;;;;1.05;0.40;;;15.30;91.30;;;;;;4978415;28;20033;-79
2023/10/29 11:40:23;;;;;;;1.45;0.47;;;15.30;91.30;;;;;;4995481;28;20026;-78
2023/10/29 11:42:49;;;;;;;1.08;0.38;;;15.30;91.30;;;;;;4976300;28;20096;-78
2023/10/29 11:45:31;;;;;;;0.80;0.40;;;15.30;91.30;;;;;;4969502;28;20026;-78
2023/10/29 11:48:06;;;;;;;0.50;0.30;;;15.30;91.40;;;;;;4970734;28;20019;-79
2023/10/29 11:50:33;;;;;;;1.45;0.40;;;15.30;91.40;;;;;;4990617;28;20014;-78
2023/10/29 11:52:58;;;;;;;0.68;0.35;;;15.30;91.40;;;;;;4991243;28;20015;-81
2023/10/29 11:55:38;;;;;;;2.05;0.55;;;15.30;91.50;;;;;;4992396;28;20105;-79
2023/10/29 11:58:05;;;;;;;1.50;0.50;;;15.30;91.50;;;;;;4964939;28;20490;-80
2023/10/29 12:00:40;;;;;;;0.95;0.35;;;15.20;91.40;;;;;;4956483;28;20101;-78
2023/10/29 12:03:08;;;;;;;0.40;0.30;;;15.20;91.40;;;;;;4974922;28;20022;-79
2023/10/29 12:05:34;;;;;;;1.20;0.30;;;15.30;91.40;;;;;;4977203;28;20026;-80
2023/10/29 12:08:04;;;;;;;0.60;0.50;;;15.30;91.30;;;;;;4977421;28;20025;-79
2023/10/29 12:10:30;;;;;;;0.98;0.40;;;15.30;91.20;;;;;;4977204;28;20427;-80
2023/10/29 12:12:55;;;;;;;1.67;0.45;;;15.40;91.20;;;;;;4977481;28;20496;-80
2023/10/29 12:15:22;;;;;;;1.90;0.43;;;15.40;91.10;;;;;;4977484;28;20063;-80
2023/10/29 12:17:48;;;;;;;1.20;0.30;;;15.40;91.20;;;;;;4977315;28;20080;-80
2023/10/29 12:20:29;;;;;;;1.70;0.55;;;15.40;91.10;;;;;;4977041;28;20026;-80
2023/10/29 12:22:57;;;;;;;2.53;0.40;;;15.40;91.00;;;;;;4994757;28;20042;-80
2023/10/29 12:25:23;;;;;;;1.35;0.50;;;15.40;91.10;;;;;;4994472;28;20022;-80
2023/10/29 12:27:49;;;;;;;0.60;0.40;;;15.40;91.10;;;;;;4977085;28;20030;-80
2023/10/29 12:30:34;;;;;;;1.15;0.40;;;15.40;91.10;;;;;;4976951;28;20465;-79
2023/10/29 12:33:23;;;;;;;1.73;0.50;;;15.40;91.20;;;;;;4976992;28;20448;-80
2023/10/29 12:35:50;;;;;;;0.90;0.43;;;15.40;91.20;;;;;;4974272;28;20026;-80
2023/10/29 12:38:17;;;;;;;1.00;0.40;;;15.30;91.20;;;;;;4977181;28;20033;-79
2023/10/29 12:41:04;;;;;;;2.15;0.60;;;15.30;91.20;;;;;;4976120;28;20023;-80
2023/10/29 12:43:43;;;;;;;2.13;0.50;;;15.30;91.30;;;;;;4994105;28;20507;-80
2023/10/29 12:46:10;;;;;;;1.70;0.47;;;15.30;91.30;;;;;;4976414;28;20026;-80
2023/10/29 12:49:01;;;;;;;1.67;0.45;;;15.30;91.30;;;;;;4976736;28;20073;-78
2023/10/29 12:51:32;;;;;;;1.73;0.70;;;15.30;91.30;;;;;;4976551;28;20503;-80
2023/10/29 12:54:19;;;;;;;1.45;0.50;;;15.30;91.30;;;;;;4976727;28;20093;-80
2023/10/29 12:56:52;;;;;;;2.05;0.50;;;15.30;91.30;;;;;;4976255;28;20038;-80
2023/10/29 12:59:21;;;;;;;1.38;0.47;;;15.30;91.30;;;;;;4976724;28;20030;-80
2023/10/29 13:01:52;;;;;;;0.30;0.20;;;15.30;91.30;;;;;;4976565;28;20029;-80
2023/10/29 13:04:17;;;;;;;1.17;0.30;;;15.30;91.30;;;;;;4993951;28;20022;-80
2023/10/29 13:06:43;;;;;;;1.33;0.40;;;15.30;91.30;;;;;;4993777;28;20092;-79
2023/10/29 13:09:11;;;;;;;1.30;0.47;;;15.30;91.40;;;;;;4976529;28;20027;-80
2023/10/29 13:11:38;;;;;;;2.65;0.52;;;15.30;91.40;;;;;;4991134;28;20477;-79
2023/10/29 13:14:03;;;;;;;1.73;0.40;;;15.30;91.40;;;;;;4976265;28;20026;-80
2023/10/29 13:16:29;;;;;;;1.10;0.50;;;15.30;91.40;;;;;;4975631;28;20456;-80
2023/10/29 13:18:54;;;;;;;0.50;0.22;;;15.30;91.40;;;;;;4993608;28;20019;-80
2023/10/29 13:21:20;;;;;;;0.85;0.40;;;15.30;91.30;;;;;;4975805;28;20030;-79
2023/10/29 13:23:46;;;;;;;1.60;0.60;;;15.30;91.30;;;;;;4976067;28;20133;-79
2023/10/29 13:26:11;;;;;;;1.15;0.40;;;15.30;91.20;;;;;;4976338;28;20035;-80
2023/10/29 13:28:37;;;;;;;1.50;0.40;;;15.30;91.20;;;;;;4993814;28;20032;-80